Time;durP1;ratioP1;P1;durP2;ratioP2;P2;SDS_P1;SDS_P2;PMS_P1;PMS_P2;Temp;Humidity;BMP_temperature;BMP_pressure;BME280_temperature;BME280_humidity;BME280_pressure;Samples;Min_cycle;Max_cycle;Signal;HPM_P1;HPM_P2
2023/09/12 00:01:27;;;;;;;10.47;9.67;;;24.30;99.90;;;;;;5004645;28;20182;-63
2023/09/12 00:03:53;;;;;;;9.80;9.00;;;24.20;99.90;;;;;;5010408;28;20426;-63
2023/09/12 00:06:18;;;;;;;10.47;9.57;;;24.20;99.90;;;;;;5002260;28;20654;-63
2023/09/12 00:08:44;;;;;;;9.57;8.70;;;24.10;99.90;;;;;;4998368;28;20212;-63
2023/09/12 00:11:11;;;;;;;9.87;9.17;;;24.10;99.90;;;;;;5012213;28;20199;-63
2023/09/12 00:13:41;;;;;;;10.47;9.73;;;24.10;99.90;;;;;;5011539;28;20245;-63
2023/09/12 00:16:10;;;;;;;10.13;9.40;;;24.00;99.90;;;;;;5010925;28;20434;-63
2023/09/12 00:18:37;;;;;;;10.03;9.23;;;24.00;99.90;;;;;;5012810;28;20410;-63
2023/09/12 00:21:03;;;;;;;8.60;8.00;;;23.90;99.90;;;;;;5010845;28;20942;-63
2023/09/12 00:23:29;;;;;;;9.33;8.73;;;23.90;99.90;;;;;;5011763;28;20437;-63
2023/09/12 00:25:56;;;;;;;9.60;8.90;;;23.90;99.90;;;;;;5011774;28;20914;-63
2023/09/12 00:28:22;;;;;;;9.70;8.93;;;23.90;99.90;;;;;;5011802;28;20480;-63
2023/09/12 00:30:48;;;;;;;10.10;9.37;;;23.80;99.90;;;;;;5011460;28;20458;-63
2023/09/12 00:33:13;;;;;;;9.63;9.03;;;23.80;99.90;;;;;;5011180;28;20199;-63
2023/09/12 00:35:39;;;;;;;10.23;9.53;;;23.80;99.90;;;;;;5012111;28;20182;-63
2023/09/12 00:38:06;;;;;;;11.10;10.30;;;23.80;99.90;;;;;;5010605;28;20231;-63
2023/09/12 00:40:32;;;;;;;10.40;9.70;;;23.80;99.90;;;;;;5011964;28;20186;-63
2023/09/12 00:42:58;;;;;;;10.70;9.90;;;23.70;99.90;;;;;;5011687;28;20960;-62
2023/09/12 00:45:25;;;;;;;8.70;8.10;;;23.70;99.90;;;;;;5011238;28;20487;-63
2023/09/12 00:47:52;;;;;;;9.40;8.47;;;23.70;99.90;;;;;;5001830;28;20423;-63
2023/09/12 00:50:19;;;;;;;10.00;9.33;;;23.70;99.90;;;;;;4994301;28;20427;-63
2023/09/12 00:52:46;;;;;;;8.07;7.47;;;23.60;99.90;;;;;;5012433;28;20494;-63
2023/09/12 00:55:12;;;;;;;8.37;7.77;;;23.70;99.90;;;;;;4996608;28;20518;-63
2023/09/12 00:57:38;;;;;;;7.67;7.13;;;23.70;99.90;;;;;;4993992;28;20514;-62
2023/09/12 01:00:11;;;;;;;8.93;8.33;;;23.60;99.90;;;;;;5011674;28;20215;-63
2023/09/12 01:02:46;;;;;;;7.77;7.37;;;23.60;99.90;;;;;;5011469;28;20433;-63
2023/09/12 01:05:14;;;;;;;7.00;6.60;;;23.60;99.90;;;;;;5010685;28;20422;-63
2023/09/12 01:07:42;;;;;;;7.40;7.00;;;23.60;99.90;;;;;;5010792;28;20414;-63
2023/09/12 01:10:08;;;;;;;6.97;6.53;;;23.60;99.90;;;;;;5011214;28;20484;-63
2023/09/12 01:12:34;;;;;;;7.90;7.30;;;23.60;99.90;;;;;;5011094;28;20519;-63
2023/09/12 01:15:00;;;;;;;8.53;7.93;;;23.60;99.90;;;;;;5012143;28;20410;-63
2023/09/12 01:17:26;;;;;;;7.47;6.67;;;23.60;99.90;;;;;;5029923;28;20228;-63
2023/09/12 01:19:53;;;;;;;7.50;7.00;;;23.60;99.90;;;;;;5014836;28;20186;-63
2023/09/12 01:22:30;;;;;;;7.03;6.53;;;23.60;99.90;;;;;;5013930;28;20410;-63
2023/09/12 01:25:43;;;;;;;6.43;6.10;;;23.60;99.90;;;;;;5013551;28;20426;-58
2023/09/12 01:28:10;;;;;;;6.17;5.67;;;23.60;99.90;;;;;;4972843;28;20439;-63
2023/09/12 01:30:36;;;;;;;6.93;6.43;;;23.50;99.90;;;;;;4983911;28;20861;-63
2023/09/12 01:33:02;;;;;;;6.43;5.97;;;23.50;99.90;;;;;;4979355;28;21007;-63
2023/09/12 01:35:28;;;;;;;7.37;6.87;;;23.50;99.90;;;;;;5011222;28;20471;-63
2023/09/12 01:37:54;;;;;;;6.90;6.50;;;23.50;99.90;;;;;;5014129;28;20465;-64
2023/09/12 01:40:33;;;;;;;7.67;7.17;;;23.50;99.90;;;;;;5014887;28;20189;-63
2023/09/12 01:43:01;;;;;;;7.90;7.40;;;23.50;99.90;;;;;;5013788;28;20430;-62
2023/09/12 01:45:27;;;;;;;7.10;6.57;;;23.50;99.90;;;;;;5014115;28;20430;-63
2023/09/12 01:47:54;;;;;;;7.93;7.33;;;23.50;99.90;;;;;;5014254;28;20408;-64
2023/09/12 01:50:20;;;;;;;6.90;6.30;;;23.50;99.90;;;;;;5013180;28;20429;-63
2023/09/12 01:52:49;;;;;;;6.63;6.23;;;23.30;99.90;;;;;;5014159;28;20484;-64
2023/09/12 01:55:16;;;;;;;6.10;5.70;;;23.10;99.90;;;;;;4997889;28;20506;-63
2023/09/12 01:57:42;;;;;;;6.50;6.10;;;23.10;99.90;;;;;;5009060;28;20437;-63
2023/09/12 02:00:09;;;;;;;6.00;5.60;;;23.20;99.90;;;;;;5012405;28;20801;-63
2023/09/12 02:02:34;;;;;;;6.33;5.90;;;23.20;99.90;;;;;;5015176;28;20414;-63
2023/09/12 02:05:13;;;;;;;6.17;5.77;;;23.20;99.90;;;;;;5013591;28;20433;-62
2023/09/12 02:07:41;;;;;;;9.07;8.30;;;23.20;99.90;;;;;;5013747;28;20274;-63
2023/09/12 02:10:07;;;;;;;7.33;6.83;;;23.30;99.90;;;;;;5013655;28;20425;-63
2023/09/12 02:12:33;;;;;;;8.00;7.40;;;23.30;99.90;;;;;;5013678;28;20470;-64
2023/09/12 02:14:59;;;;;;;8.17;7.67;;;23.30;99.90;;;;;;5012975;28;20952;-63
2023/09/12 02:17:24;;;;;;;8.23;7.67;;;23.30;99.90;;;;;;5014650;28;20230;-64
2023/09/12 02:19:50;;;;;;;8.80;8.13;;;23.30;99.90;;;;;;5012994;28;20422;-64
2023/09/12 02:22:16;;;;;;;8.10;7.50;;;23.30;99.90;;;;;;5012968;28;20190;-63
2023/09/12 02:24:42;;;;;;;9.07;8.17;;;23.30;99.90;;;;;;5012425;28;20214;-61
2023/09/12 02:27:07;;;;;;;8.17;7.50;;;23.30;99.90;;;;;;5012515;28;20186;-63
2023/09/12 02:29:34;;;;;;;8.40;7.80;;;23.20;99.90;;;;;;5013598;28;20229;-63
2023/09/12 02:32:00;;;;;;;8.27;7.67;;;23.20;99.90;;;;;;5014414;28;20202;-63
2023/09/12 02:34:26;;;;;;;8.87;8.13;;;23.20;99.90;;;;;;5013320;28;20487;-63
2023/09/12 02:36:52;;;;;;;8.40;7.70;;;23.20;99.90;;;;;;5012025;28;20441;-63
2023/09/12 02:39:17;;;;;;;8.30;7.70;;;23.20;99.90;;;;;;5011920;28;20965;-64
2023/09/12 02:41:43;;;;;;;8.13;7.43;;;23.30;99.90;;;;;;5014273;28;20175;-63
2023/09/12 02:44:09;;;;;;;8.40;7.63;;;23.30;99.90;;;;;;5012606;28;20632;-63
2023/09/12 02:46:36;;;;;;;8.00;7.40;;;23.20;99.90;;;;;;5005867;28;20198;-63
2023/09/12 02:49:01;;;;;;;9.33;8.53;;;23.20;99.90;;;;;;4993679;28;20176;-58
2023/09/12 02:51:27;;;;;;;8.43;7.77;;;23.10;99.90;;;;;;5013790;28;20469;-63
2023/09/12 02:53:53;;;;;;;10.00;9.30;;;22.90;99.90;;;;;;5012687;28;20662;-63
2023/09/12 02:56:19;;;;;;;10.10;9.20;;;22.80;99.90;;;;;;5012409;28;20418;-61
2023/09/12 02:58:48;;;;;;;10.30;9.50;;;22.60;99.90;;;;;;5013872;28;20618;-63
2023/09/12 03:01:16;;;;;;;10.53;9.67;;;22.50;99.90;;;;;;5012355;28;20190;-62
2023/09/12 03:03:42;;;;;;;11.87;10.90;;;22.50;99.90;;;;;;5012453;28;20783;-63
2023/09/12 03:06:08;;;;;;;10.87;10.17;;;22.50;99.90;;;;;;5013144;28;20422;-63
2023/09/12 03:08:33;;;;;;;9.33;8.70;;;22.60;99.90;;;;;;5012907;28;20524;-63
2023/09/12 03:11:01;;;;;;;11.50;10.60;;;22.60;99.90;;;;;;5012659;28;20233;-63
2023/09/12 03:13:28;;;;;;;10.37;9.40;;;22.70;99.90;;;;;;5013421;28;20662;-63
2023/09/12 03:15:54;;;;;;;12.20;10.67;;;22.70;99.90;;;;;;5011508;28;20425;-63
2023/09/12 03:18:20;;;;;;;9.63;8.83;;;22.80;99.90;;;;;;5011747;28;20430;-63
2023/09/12 03:20:45;;;;;;;10.27;8.77;;;22.80;99.90;;;;;;5012463;28;20266;-63
2023/09/12 03:23:11;;;;;;;9.50;8.80;;;22.80;99.90;;;;;;5012664;28;20406;-62
2023/09/12 03:25:38;;;;;;;11.97;10.97;;;22.80;99.90;;;;;;5011750;28;20191;-63
2023/09/12 03:28:05;;;;;;;10.57;9.67;;;22.80;99.90;;;;;;5011076;28;20183;-59
2023/09/12 03:30:35;;;;;;;10.77;9.87;;;22.90;99.90;;;;;;5012475;28;20434;-63
2023/09/12 03:33:00;;;;;;;10.73;9.83;;;22.90;99.90;;;;;;5012350;28;20855;-64
2023/09/12 03:35:28;;;;;;;11.20;10.23;;;22.90;99.90;;;;;;5012809;28;20430;-63
2023/09/12 03:37:54;;;;;;;12.10;11.00;;;22.90;99.90;;;;;;5011905;28;20219;-63
2023/09/12 03:40:20;;;;;;;11.13;10.33;;;22.80;99.90;;;;;;5011706;28;20960;-67
2023/09/12 03:42:45;;;;;;;11.90;10.90;;;22.80;99.90;;;;;;5013207;28;20179;-63
2023/09/12 03:45:11;;;;;;;10.80;9.90;;;22.80;99.90;;;;;;5011615;28;20183;-63
2023/09/12 03:47:37;;;;;;;10.50;9.60;;;22.80;99.90;;;;;;5012262;28;20175;-64
2023/09/12 03:50:03;;;;;;;12.10;11.00;;;22.80;99.90;;;;;;5011532;28;20183;-62
2023/09/12 03:52:29;;;;;;;12.03;10.70;;;22.80;99.90;;;;;;5011198;28;20195;-63
2023/09/12 03:54:55;;;;;;;13.03;11.60;;;22.70;99.90;;;;;;5010738;28;20441;-63
2023/09/12 03:57:21;;;;;;;12.97;11.87;;;22.70;99.90;;;;;;5001088;28;20797;-63
2023/09/12 03:59:47;;;;;;;13.47;12.37;;;22.70;99.90;;;;;;4992125;28;20183;-63
2023/09/12 04:02:13;;;;;;;14.70;13.20;;;22.60;99.90;;;;;;5010531;28;20194;-62
2023/09/12 04:04:39;;;;;;;15.03;13.27;;;22.50;99.90;;;;;;5000184;28;20234;-64
2023/09/12 04:07:05;;;;;;;14.03;12.77;;;22.30;99.90;;;;;;4996997;28;20458;-64
2023/09/12 04:09:31;;;;;;;15.23;13.70;;;22.10;99.90;;;;;;5011011;28;20653;-64
2023/09/12 04:11:57;;;;;;;14.07;12.40;;;22.00;99.90;;;;;;5011863;28;20468;-64
2023/09/12 04:14:23;;;;;;;14.20;12.80;;;21.90;99.90;;;;;;4986843;28;20943;-65
2023/09/12 04:16:50;;;;;;;13.90;12.60;;;21.80;99.90;;;;;;4992762;28;20235;-63
2023/09/12 04:19:15;;;;;;;15.87;14.30;;;21.70;99.90;;;;;;5010051;28;20430;-64
2023/09/12 04:21:41;;;;;;;14.90;13.50;;;21.70;99.90;;;;;;5011875;28;20187;-64
2023/09/12 04:24:07;;;;;;;15.87;14.37;;;21.70;99.90;;;;;;5011277;28;20654;-59
2023/09/12 04:26:34;;;;;;;16.73;15.23;;;21.60;99.90;;;;;;5012751;28;20585;-64
2023/09/12 04:28:59;;;;;;;16.53;15.03;;;21.40;99.90;;;;;;5004357;28;20429;-64
2023/09/12 04:31:25;;;;;;;15.33;13.93;;;21.30;99.90;;;;;;5010976;28;20466;-64
2023/09/12 04:33:52;;;;;;;18.77;16.97;;;21.20;99.90;;;;;;5011412;28;20642;-64
2023/09/12 04:36:21;;;;;;;18.10;15.90;;;21.20;99.90;;;;;;5012011;28;20175;-64
2023/09/12 04:38:47;;;;;;;18.53;16.60;;;21.20;99.90;;;;;;5011306;28;20476;-64
2023/09/12 04:41:16;;;;;;;17.13;15.40;;;21.30;99.90;;;;;;5010395;28;20221;-64
2023/09/12 04:43:44;;;;;;;15.80;14.20;;;21.40;99.90;;;;;;5012629;28;20225;-64
2023/09/12 04:46:10;;;;;;;15.50;14.17;;;21.50;99.90;;;;;;5003332;28;20521;-64
2023/09/12 04:48:37;;;;;;;15.83;14.37;;;21.50;99.90;;;;;;5011296;28;20465;-64
2023/09/12 04:51:03;;;;;;;15.00;13.70;;;21.60;99.90;;;;;;4998516;28;20490;-64
2023/09/12 04:53:34;;;;;;;16.70;15.20;;;21.60;99.90;;;;;;5015776;28;21320;-64
2023/09/12 04:56:01;;;;;;;15.40;13.90;;;21.70;99.90;;;;;;5014829;28;20229;-64
2023/09/12 04:58:27;;;;;;;17.00;15.23;;;21.80;99.90;;;;;;5013865;28;20537;-64
2023/09/12 05:00:54;;;;;;;17.40;15.80;;;21.90;99.90;;;;;;5016109;28;20822;-64
2023/09/12 05:03:20;;;;;;;15.97;14.43;;;21.80;99.90;;;;;;5013869;28;20790;-64
2023/09/12 05:05:48;;;;;;;15.00;13.50;;;21.70;99.90;;;;;;4995097;28;20423;-64
2023/09/12 05:08:14;;;;;;;15.00;13.60;;;21.70;99.90;;;;;;4997606;28;20171;-63
2023/09/12 05:10:39;;;;;;;15.43;13.83;;;21.80;99.90;;;;;;5013367;28;20521;-65
2023/09/12 05:13:05;;;;;;;18.83;17.00;;;21.90;99.90;;;;;;5014052;28;20179;-64
2023/09/12 05:15:31;;;;;;;15.43;14.00;;;22.00;99.90;;;;;;5015390;28;20171;-65
2023/09/12 05:17:57;;;;;;;16.00;14.50;;;22.00;99.90;;;;;;5014789;28;20832;-65
2023/09/12 05:20:23;;;;;;;17.33;15.73;;;22.00;99.90;;;;;;5013379;28;20956;-64
2023/09/12 05:22:49;;;;;;;16.63;14.00;;;22.10;99.90;;;;;;5015514;28;20631;-65
2023/09/12 05:25:14;;;;;;;15.67;14.07;;;22.20;99.90;;;;;;4996975;28;20194;-64
2023/09/12 05:27:40;;;;;;;15.93;14.30;;;22.20;99.90;;;;;;5013095;28;20274;-64
2023/09/12 05:30:06;;;;;;;15.67;14.07;;;22.10;99.90;;;;;;5013380;28;20179;-64
2023/09/12 05:32:32;;;;;;;16.60;13.40;;;22.00;99.90;;;;;;5014932;28;20203;-65
2023/09/12 05:34:58;;;;;;;15.57;14.07;;;22.00;99.90;;;;;;5014410;28;20900;-65
2023/09/12 05:37:24;;;;;;;15.37;13.83;;;22.10;99.90;;;;;;5014173;28;20199;-64
2023/09/12 05:39:49;;;;;;;17.93;14.60;;;22.10;99.90;;;;;;5013984;28;20645;-65
2023/09/12 05:42:20;;;;;;;15.60;14.20;;;22.10;99.90;;;;;;5014748;28;20279;-65
2023/09/12 05:44:48;;;;;;;14.47;13.07;;;22.20;99.90;;;;;;5015246;28;20229;-65
2023/09/12 05:47:14;;;;;;;14.00;12.60;;;22.20;99.90;;;;;;5014361;28;20944;-66
2023/09/12 05:49:40;;;;;;;11.90;10.87;;;22.30;99.90;;;;;;5013813;28;20406;-66
2023/09/12 05:52:06;;;;;;;12.90;11.60;;;22.40;99.90;;;;;;5012805;28;20306;-65
2023/09/12 05:54:32;;;;;;;12.63;11.53;;;22.40;99.90;;;;;;5012930;28;20436;-65
2023/09/12 05:56:57;;;;;;;14.00;12.80;;;22.50;99.90;;;;;;5014713;28;20175;-66
2023/09/12 05:59:23;;;;;;;13.17;12.00;;;22.50;99.90;;;;;;5013947;28;20260;-65
2023/09/12 06:01:49;;;;;;;12.13;11.07;;;22.60;99.90;;;;;;5011245;28;20571;-70
2023/09/12 06:04:14;;;;;;;13.07;11.83;;;22.60;99.90;;;;;;5013434;28;20638;-70
2023/09/12 06:06:40;;;;;;;12.10;11.07;;;22.70;99.90;;;;;;5015157;28;20179;-67
2023/09/12 06:09:08;;;;;;;12.70;11.50;;;22.80;99.90;;;;;;5012909;28;20649;-68
2023/09/12 06:11:34;;;;;;;11.50;10.50;;;22.80;99.90;;;;;;5009651;28;20470;-68
2023/09/12 06:14:00;;;;;;;183.63;50.03;;;23.00;99.90;;;;;;5013403;28;20426;-68
2023/09/12 06:16:26;;;;;;;42.53;21.07;;;23.10;99.90;;;;;;5014184;28;20206;-67
2023/09/12 06:18:53;;;;;;;13.93;12.60;;;23.20;99.90;;;;;;5014634;28;20171;-68
2023/09/12 06:21:21;;;;;;;29.50;13.67;;;23.40;99.90;;;;;;5013004;28;20421;-70
2023/09/12 06:23:47;;;;;;;194.93;150.27;;;23.50;99.90;;;;;;5006456;28;20422;-71
2023/09/12 06:26:13;;;;;;;327.77;264.73;;;23.60;99.90;;;;;;5013034;28;20901;-71
2023/09/12 06:28:40;;;;;;;287.00;255.80;;;23.60;99.90;;;;;;5014265;28;20501;-72
2023/09/12 06:31:11;;;;;;;333.03;296.50;;;23.70;99.90;;;;;;5013200;28;20545;-69
2023/09/12 06:33:39;;;;;;;412.07;363.57;;;23.80;99.90;;;;;;5003079;28;20511;-72
2023/09/12 06:36:05;;;;;;;130.57;116.27;;;23.90;99.90;;;;;;5014201;28;20426;-71
2023/09/12 06:38:30;;;;;;;35.30;31.77;;;23.90;99.90;;;;;;5001570;28;20462;-71
2023/09/12 06:40:56;;;;;;;21.73;17.73;;;24.00;99.90;;;;;;5013629;28;20852;-71
2023/09/12 06:43:22;;;;;;;47.77;37.03;;;24.10;99.90;;;;;;5013507;28;20183;-69
2023/09/12 06:45:48;;;;;;;34.50;28.20;;;24.10;99.90;;;;;;5008821;28;20186;-73
2023/09/12 06:48:13;;;;;;;13.20;12.00;;;24.10;99.90;;;;;;5014132;28;20213;-65
2023/09/12 06:50:40;;;;;;;14.40;13.20;;;24.20;99.90;;;;;;5011632;28;20635;-64
2023/09/12 06:53:07;;;;;;;14.00;12.60;;;24.10;99.90;;;;;;5013369;28;20183;-64
2023/09/12 06:55:32;;;;;;;13.27;12.07;;;24.10;99.90;;;;;;5024650;28;20934;-64
2023/09/12 06:57:58;;;;;;;15.63;13.50;;;24.10;99.90;;;;;;5023589;28;20418;-65
2023/09/12 07:00:26;;;;;;;25.80;23.20;;;24.10;99.90;;;;;;5012395;28;20181;-66
2023/09/12 07:02:52;;;;;;;23.83;18.10;;;24.10;99.90;;;;;;5013707;28;20183;-64
2023/09/12 07:05:17;;;;;;;12.37;11.27;;;24.10;99.90;;;;;;5013092;28;20525;-64
2023/09/12 07:07:43;;;;;;;19.47;17.60;;;24.10;99.90;;;;;;5013606;28;20218;-66
2023/09/12 07:10:09;;;;;;;13.80;12.60;;;24.00;99.90;;;;;;5013297;28;20198;-74
2023/09/12 07:12:35;;;;;;;15.73;14.13;;;23.90;99.90;;;;;;5012737;28;20218;-66
2023/09/12 07:15:01;;;;;;;13.43;12.17;;;23.80;99.90;;;;;;5009585;28;20185;-64
2023/09/12 07:17:28;;;;;;;12.20;11.20;;;23.80;99.90;;;;;;5011869;28;20219;-70
2023/09/12 07:19:54;;;;;;;16.00;14.50;;;23.80;99.90;;;;;;5013379;28;20190;-69
2023/09/12 07:22:20;;;;;;;14.63;13.23;;;23.80;99.90;;;;;;5010604;28;20921;-65
2023/09/12 07:24:45;;;;;;;15.33;13.80;;;23.80;99.90;;;;;;5011254;28;20187;-65
2023/09/12 07:27:11;;;;;;;14.60;13.20;;;23.80;99.90;;;;;;5012349;28;20230;-66
2023/09/12 07:29:38;;;;;;;14.13;12.87;;;23.80;99.90;;;;;;5010893;28;20183;-68
2023/09/12 07:32:04;;;;;;;14.00;12.77;;;23.80;99.90;;;;;;5012892;28;20207;-68
2023/09/12 07:34:29;;;;;;;13.90;12.60;;;23.80;99.90;;;;;;5005344;28;20999;-65
2023/09/12 07:36:55;;;;;;;145.87;125.60;;;23.80;99.90;;;;;;5010552;28;20497;-66
2023/09/12 07:39:21;;;;;;;87.67;77.80;;;23.80;99.90;;;;;;5010217;28;20226;-65
2023/09/12 07:41:47;;;;;;;25.03;22.63;;;23.80;99.90;;;;;;5013045;28;20191;-65
2023/09/12 07:44:15;;;;;;;16.93;15.43;;;23.80;99.90;;;;;;5012803;28;20174;-65
2023/09/12 07:46:41;;;;;;;18.40;16.90;;;23.80;99.90;;;;;;5012226;28;20433;-66
2023/09/12 07:49:09;;;;;;;17.80;15.47;;;23.80;99.90;;;;;;4995736;28;20443;-66
2023/09/12 07:51:35;;;;;;;18.57;16.97;;;23.80;99.90;;;;;;4997315;28;20876;-66
2023/09/12 07:54:01;;;;;;;19.27;17.27;;;23.80;99.90;;;;;;5012733;28;20493;-65
2023/09/12 07:56:27;;;;;;;16.73;15.33;;;23.80;99.90;;;;;;5011155;28;20757;-66
2023/09/12 07:58:53;;;;;;;15.17;13.57;;;23.90;99.90;;;;;;5011481;28;20479;-66
2023/09/12 08:01:19;;;;;;;16.20;14.80;;;23.90;99.90;;;;;;5011878;28;20316;-66
2023/09/12 08:03:44;;;;;;;15.33;14.03;;;23.90;99.90;;;;;;5013026;28;20175;-66
2023/09/12 08:06:10;;;;;;;15.30;13.90;;;23.90;99.90;;;;;;5013281;28;20175;-65
2023/09/12 08:08:36;;;;;;;16.13;14.67;;;23.90;99.90;;;;;;4989098;28;20178;-66
2023/09/12 08:11:02;;;;;;;15.20;13.70;;;23.90;99.90;;;;;;4992099;28;20243;-65
2023/09/12 08:13:29;;;;;;;147.50;132.47;;;23.90;99.90;;;;;;4995262;28;20539;-65
2023/09/12 08:15:55;;;;;;;100.77;91.07;;;23.60;99.90;;;;;;5011696;28;20437;-65
2023/09/12 08:18:21;;;;;;;20.17;18.20;;;23.70;99.90;;;;;;5006271;28;20476;-62
2023/09/12 08:20:47;;;;;;;15.23;13.90;;;23.80;99.90;;;;;;5011803;28;20836;-63
2023/09/12 08:23:13;;;;;;;17.97;16.30;;;23.90;99.90;;;;;;5012625;28;20426;-64
2023/09/12 08:25:39;;;;;;;16.37;15.10;;;23.50;99.90;;;;;;4994210;28;20619;-65
2023/09/12 08:28:05;;;;;;;17.60;16.00;;;23.20;99.90;;;;;;5008475;28;20182;-65
2023/09/12 08:30:32;;;;;;;18.27;16.77;;;23.30;99.90;;;;;;5013079;28;20437;-65
2023/09/12 08:32:58;;;;;;;18.33;16.73;;;23.50;99.90;;;;;;5011772;28;20269;-65
2023/09/12 08:35:26;;;;;;;17.37;15.87;;;23.60;99.90;;;;;;4996491;28;20454;-65
2023/09/12 08:37:52;;;;;;;21.07;19.27;;;23.70;99.90;;;;;;5008549;28;20215;-65
2023/09/12 08:40:18;;;;;;;17.90;16.07;;;23.80;99.90;;;;;;5016623;28;20417;-65
2023/09/12 08:42:45;;;;;;;18.13;16.43;;;23.80;99.90;;;;;;5016296;28;20262;-65
2023/09/12 08:45:15;;;;;;;18.10;16.50;;;23.80;99.90;;;;;;5016440;28;20414;-65
2023/09/12 08:47:42;;;;;;;18.53;17.03;;;23.80;99.90;;;;;;5015784;28;20434;-65
2023/09/12 08:50:12;;;;;;;17.97;16.37;;;23.80;99.90;;;;;;5015890;28;20429;-65
2023/09/12 08:52:39;;;;;;;17.77;15.97;;;23.60;99.90;;;;;;5015599;28;20520;-65
2023/09/12 08:55:05;;;;;;;16.17;14.57;;;23.50;99.90;;;;;;5016410;28;20414;-65
2023/09/12 08:57:35;;;;;;;15.83;14.43;;;23.60;99.90;;;;;;5013901;28;20425;-66
2023/09/12 09:00:06;;;;;;;15.83;14.43;;;23.60;99.90;;;;;;5015909;28;20898;-66
2023/09/12 09:02:35;;;;;;;15.47;14.27;;;23.70;99.90;;;;;;5015343;28;20908;-66
2023/09/12 09:05:05;;;;;;;14.83;13.63;;;23.70;99.90;;;;;;5016130;28;20413;-66
2023/09/12 09:07:37;;;;;;;14.93;13.63;;;23.80;99.90;;;;;;5015686;28;20483;-66
2023/09/12 09:10:05;;;;;;;15.67;14.37;;;23.90;99.90;;;;;;5016248;28;20432;-66
2023/09/12 09:12:31;;;;;;;14.97;13.57;;;23.90;99.90;;;;;;5015339;28;20454;-66
2023/09/12 09:14:57;;;;;;;14.33;13.20;;;24.00;99.90;;;;;;5016283;28;20497;-66
2023/09/12 09:17:23;;;;;;;15.13;13.90;;;24.10;99.90;;;;;;5014400;28;20493;-66
2023/09/12 09:19:49;;;;;;;15.20;13.93;;;24.10;99.90;;;;;;5015115;28;20202;-66
2023/09/12 09:22:15;;;;;;;12.20;11.20;;;24.30;99.90;;;;;;5015979;28;20789;-66
2023/09/12 09:24:41;;;;;;;11.93;10.97;;;24.30;99.90;;;;;;5015240;28;20177;-68
2023/09/12 09:27:07;;;;;;;11.07;10.17;;;24.40;99.90;;;;;;5015732;28;20414;-68
2023/09/12 09:29:48;;;;;;;13.17;12.10;;;24.30;99.90;;;;;;5014341;28;20171;-67
2023/09/12 09:32:18;;;;;;;11.70;10.60;;;24.40;99.90;;;;;;5013144;28;20199;-67
2023/09/12 09:34:45;;;;;;;306.37;273.37;;;24.50;99.90;;;;;;5011469;28;20418;-68
2023/09/12 09:37:10;;;;;;;13.23;12.20;;;24.70;99.90;;;;;;5014840;28;20501;-68
2023/09/12 09:39:38;;;;;;;21.30;19.33;;;24.70;99.90;;;;;;5014934;28;20457;-67
2023/09/12 09:42:10;;;;;;;11.90;11.07;;;24.70;99.90;;;;;;5015360;28;20512;-67
2023/09/12 09:44:36;;;;;;;9.70;8.90;;;24.80;99.90;;;;;;5014697;28;20217;-68
2023/09/12 09:47:02;;;;;;;24.10;22.00;;;24.50;99.90;;;;;;5014969;28;20459;-68
2023/09/12 09:49:31;;;;;;;20.47;18.60;;;24.40;99.90;;;;;;5013469;28;20171;-68
2023/09/12 09:51:58;;;;;;;18.43;16.90;;;24.50;99.90;;;;;;5015347;28;20787;-67
2023/09/12 09:54:25;;;;;;;14.87;13.77;;;24.50;99.90;;;;;;5004612;28;20441;-68
2023/09/12 09:56:57;;;;;;;16.20;14.80;;;24.50;99.90;;;;;;5014950;28;20894;-67
2023/09/12 09:59:27;;;;;;;14.93;13.63;;;24.50;99.90;;;;;;5014008;28;20406;-67
2023/09/12 10:01:57;;;;;;;11.87;10.60;;;24.60;99.90;;;;;;5013787;28;20425;-66
2023/09/12 10:04:23;;;;;;;13.47;12.47;;;24.80;99.90;;;;;;5029780;28;20887;-67
2023/09/12 10:06:49;;;;;;;63.03;56.57;;;24.90;99.90;;;;;;5014303;28;20482;-66
2023/09/12 10:09:16;;;;;;;12.40;11.20;;;25.30;99.90;;;;;;5014934;28;20787;-66
2023/09/12 10:11:45;;;;;;;11.80;11.00;;;25.40;99.90;;;;;;5013022;28;20544;-66
2023/09/12 10:14:12;;;;;;;13.93;13.03;;;25.40;99.90;;;;;;5014649;28;20749;-66
2023/09/12 10:16:48;;;;;;;10.30;9.60;;;25.50;99.90;;;;;;5012830;28;20457;-66
2023/09/12 10:19:38;;;;;;;10.17;9.33;;;25.40;99.90;;;;;;5013423;28;20429;-65
2023/09/12 10:22:39;;;;;;;10.20;9.50;;;25.10;99.90;;;;;;5014827;28;20387;-66
2023/09/12 10:25:06;;;;;;;9.63;8.87;;;25.10;99.90;;;;;;5014804;28;20430;-66
2023/09/12 10:27:32;;;;;;;9.93;9.23;;;25.10;99.90;;;;;;5014263;28;20472;-66
2023/09/12 10:29:59;;;;;;;10.47;9.70;;;25.30;99.90;;;;;;5014537;28;20398;-66
2023/09/12 10:32:28;;;;;;;8.07;7.47;;;25.30;99.90;;;;;;5012969;28;20957;-66
2023/09/12 10:34:59;;;;;;;8.87;8.20;;;25.30;99.90;;;;;;5014577;28;20445;-66
2023/09/12 10:37:26;;;;;;;9.27;8.50;;;25.50;99.90;;;;;;5012656;28;20414;-65
2023/09/12 10:39:57;;;;;;;9.67;8.83;;;25.80;99.90;;;;;;5013761;28;20406;-66
2023/09/12 10:42:25;;;;;;;9.30;8.70;;;25.90;99.90;;;;;;5011962;28;20496;-66
2023/09/12 10:44:54;;;;;;;8.47;7.87;;;26.10;99.90;;;;;;5012857;28;20429;-66
2023/09/12 10:47:20;;;;;;;9.77;8.97;;;26.00;99.90;;;;;;5013694;28;20464;-66
2023/09/12 10:49:46;;;;;;;10.10;9.40;;;26.00;99.90;;;;;;5012795;28;20406;-66
2023/09/12 10:52:27;;;;;;;9.90;9.20;;;26.10;99.90;;;;;;5014029;28;20462;-66
2023/09/12 10:54:53;;;;;;;9.80;9.00;;;26.00;99.90;;;;;;5013482;28;20213;-66
2023/09/12 10:57:19;;;;;;;8.90;8.20;;;25.90;99.90;;;;;;5013757;28;20444;-66
2023/09/12 11:00:10;;;;;;;9.13;8.43;;;25.90;99.90;;;;;;5011992;28;20417;-66
2023/09/12 11:02:38;;;;;;;11.67;10.77;;;25.80;99.90;;;;;;5013346;28;20510;-66
2023/09/12 11:05:27;;;;;;;43.20;38.67;;;25.70;99.90;;;;;;5013913;28;20426;-66
2023/09/12 11:07:58;;;;;;;17.00;15.50;;;25.70;99.90;;;;;;5011426;28;20433;-66
2023/09/12 11:10:24;;;;;;;13.87;12.77;;;25.50;99.90;;;;;;5012853;28;20430;-66
2023/09/12 11:12:52;;;;;;;9.80;9.00;;;25.60;99.90;;;;;;5012852;28;20868;-66
2023/09/12 11:15:20;;;;;;;9.30;8.60;;;25.60;99.90;;;;;;5013731;28;20414;-66
2023/09/12 11:17:59;;;;;;;8.63;8.03;;;25.30;99.90;;;;;;5028627;28;20501;-66
2023/09/12 11:20:24;;;;;;;8.43;7.83;;;25.40;99.90;;;;;;5013540;28;20398;-66
2023/09/12 11:22:52;;;;;;;8.40;7.70;;;25.20;99.90;;;;;;5013010;28;20956;-66
2023/09/12 11:25:22;;;;;;;8.13;7.63;;;25.30;99.90;;;;;;5012490;28;20183;-66
2023/09/12 11:27:53;;;;;;;7.50;7.00;;;25.50;99.90;;;;;;5012998;28;20509;-66
2023/09/12 11:30:21;;;;;;;7.03;6.57;;;25.80;99.90;;;;;;5013147;28;20898;-66
2023/09/12 11:32:50;;;;;;;7.60;7.10;;;25.90;99.90;;;;;;5012721;28;20511;-67
2023/09/12 11:35:16;;;;;;;7.30;6.80;;;25.70;99.90;;;;;;5012241;28;20437;-67
2023/09/12 11:37:57;;;;;;;7.97;7.27;;;25.70;99.90;;;;;;5010607;28;20468;-67
2023/09/12 11:40:43;;;;;;;7.50;6.90;;;25.60;99.90;;;;;;5013358;28;20418;-66
2023/09/12 11:43:27;;;;;;;7.27;6.57;;;25.70;99.90;;;;;;5013103;28;20765;-67
2023/09/12 11:45:54;;;;;;;9.63;9.03;;;25.60;99.90;;;;;;5011421;28;20541;-67
2023/09/12 11:48:20;;;;;;;6.37;5.97;;;25.50;99.90;;;;;;5013163;28;20471;-66
2023/09/12 11:50:54;;;;;;;6.50;5.90;;;25.40;99.90;;;;;;5012545;28;20402;-66
2023/09/12 11:53:25;;;;;;;7.60;7.10;;;25.40;99.90;;;;;;5013353;28;20618;-67
2023/09/12 11:55:53;;;;;;;6.90;6.33;;;25.50;99.90;;;;;;5012528;28;20839;-67
2023/09/12 11:58:20;;;;;;;7.43;6.83;;;25.60;99.90;;;;;;5013138;28;20418;-66
2023/09/12 12:00:53;;;;;;;8.77;8.17;;;25.60;99.90;;;;;;5012359;28;20481;-66
2023/09/12 12:03:24;;;;;;;7.73;7.23;;;25.50;99.90;;;;;;5012041;28;20783;-67
2023/09/12 12:05:50;;;;;;;7.10;6.50;;;25.30;99.90;;;;;;5012317;28;20398;-66
2023/09/12 12:08:17;;;;;;;8.10;7.47;;;25.30;99.90;;;;;;5011255;28;20418;-65
2023/09/12 12:10:43;;;;;;;8.60;7.90;;;25.30;99.90;;;;;;5011965;28;20414;-65
2023/09/12 12:13:16;;;;;;;6.43;5.93;;;25.30;99.90;;;;;;4995570;28;20413;-65
2023/09/12 12:15:44;;;;;;;7.40;6.90;;;25.40;99.90;;;;;;5011025;28;20171;-65
2023/09/12 12:18:10;;;;;;;7.47;6.97;;;25.40;99.90;;;;;;5012827;28;20900;-65
2023/09/12 12:20:36;;;;;;;6.80;6.40;;;25.50;99.90;;;;;;5012205;28;20627;-66
2023/09/12 12:23:02;;;;;;;6.37;6.07;;;25.50;99.90;;;;;;5012811;28;20296;-65
2023/09/12 12:25:33;;;;;;;6.20;5.80;;;25.50;99.90;;;;;;5012907;28;20763;-65
2023/09/12 12:27:59;;;;;;;7.40;6.90;;;25.30;99.90;;;;;;5012220;28;20541;-65
2023/09/12 12:30:27;;;;;;;7.20;6.60;;;25.30;99.90;;;;;;5011299;28;20838;-65
2023/09/12 12:32:53;;;;;;;6.90;6.50;;;25.20;99.90;;;;;;5010756;28;20461;-65
2023/09/12 12:35:20;;;;;;;7.20;6.70;;;25.20;99.90;;;;;;5010974;28;20835;-65